sensor_id;sensor_type;location;lat;lon;timestamp;P1;durP1;ratioP1;P2;durP2;ratioP2
18526;SDS011;9393;42.158;24.748;2022-09-27T00:00:06;12.10;;;9.70;;
18526;SDS011;9393;42.158;24.748;2022-09-27T00:03:13;10.27;;;9.17;;
18526;SDS011;9393;42.158;24.748;2022-09-27T00:06:19;12.67;;;9.53;;
18526;SDS011;9393;42.158;24.748;2022-09-27T00:09:27;17.17;;;10.00;;
18526;SDS011;9393;42.158;24.748;2022-09-27T00:12:30;12.73;;;8.77;;
18526;SDS011;9393;42.158;24.748;2022-09-27T00:15:34;13.70;;;9.40;;
18526;SDS011;9393;42.158;24.748;2022-09-27T00:18:38;9.57;;;8.30;;
18526;SDS011;9393;42.158;24.748;2022-09-27T00:21:42;10.73;;;7.70;;
18526;SDS011;9393;42.158;24.748;2022-09-27T00:24:49;9.80;;;8.33;;
18526;SDS011;9393;42.158;24.748;2022-09-27T00:27:53;9.07;;;8.17;;
18526;SDS011;9393;42.158;24.748;2022-09-27T00:30:56;8.77;;;7.97;;
18526;SDS011;9393;42.158;24.748;2022-09-27T00:34:03;8.97;;;8.07;;
18526;SDS011;9393;42.158;24.748;2022-09-27T00:37:07;9.03;;;7.83;;
18526;SDS011;9393;42.158;24.748;2022-09-27T00:40:13;10.53;;;8.30;;
18526;SDS011;9393;42.158;24.748;2022-09-27T00:43:21;9.33;;;8.43;;
18526;SDS011;9393;42.158;24.748;2022-09-27T00:46:25;9.23;;;8.30;;
18526;SDS011;9393;42.158;24.748;2022-09-27T00:49:32;10.17;;;7.80;;
18526;SDS011;9393;42.158;24.748;2022-09-27T00:52:44;8.87;;;7.37;;
18526;SDS011;9393;42.158;24.748;2022-09-27T00:55:58;12.10;;;7.63;;
18526;SDS011;9393;42.158;24.748;2022-09-27T00:59:05;9.13;;;8.10;;
18526;SDS011;9393;42.158;24.748;2022-09-27T01:02:13;10.40;;;7.50;;
18526;SDS011;9393;42.158;24.748;2022-09-27T01:05:17;8.23;;;7.40;;
18526;SDS011;9393;42.158;24.748;2022-09-27T01:08:23;9.23;;;6.67;;
18526;SDS011;9393;42.158;24.748;2022-09-27T01:11:37;8.93;;;6.87;;
18526;SDS011;9393;42.158;24.748;2022-09-27T01:14:48;9.40;;;7.47;;
18526;SDS011;9393;42.158;24.748;2022-09-27T01:18:07;11.10;;;7.13;;
18526;SDS011;9393;42.158;24.748;2022-09-27T01:24:52;10.80;;;6.70;;
18526;SDS011;9393;42.158;24.748;2022-09-27T01:28:20;7.60;;;6.43;;
18526;SDS011;9393;42.158;24.748;2022-09-27T01:31:38;6.37;;;5.77;;
18526;SDS011;9393;42.158;24.748;2022-09-27T01:34:46;6.90;;;6.20;;
18526;SDS011;9393;42.158;24.748;2022-09-27T01:38:01;6.37;;;5.77;;
18526;SDS011;9393;42.158;24.748;2022-09-27T01:41:21;7.67;;;6.30;;
18526;SDS011;9393;42.158;24.748;2022-09-27T01:44:53;7.43;;;5.33;;
18526;SDS011;9393;42.158;24.748;2022-09-27T01:48:12;7.70;;;5.73;;
18526;SDS011;9393;42.158;24.748;2022-09-27T01:51:27;6.77;;;5.80;;
18526;SDS011;9393;42.158;24.748;2022-09-27T01:54:35;9.17;;;6.57;;
18526;SDS011;9393;42.158;24.748;2022-09-27T01:58:02;7.07;;;5.77;;
18526;SDS011;9393;42.158;24.748;2022-09-27T02:01:12;8.20;;;6.50;;
18526;SDS011;9393;42.158;24.748;2022-09-27T02:04:21;7.03;;;6.33;;
18526;SDS011;9393;42.158;24.748;2022-09-27T02:07:42;8.93;;;6.07;;
18526;SDS011;9393;42.158;24.748;2022-09-27T02:10:50;10.40;;;6.97;;
18526;SDS011;9393;42.158;24.748;2022-09-27T02:13:58;8.13;;;6.47;;
18526;SDS011;9393;42.158;24.748;2022-09-27T02:17:16;8.53;;;7.10;;
18526;SDS011;9393;42.158;24.748;2022-09-27T02:20:30;8.10;;;6.97;;
18526;SDS011;9393;42.158;24.748;2022-09-27T02:23:38;8.67;;;6.37;;
18526;SDS011;9393;42.158;24.748;2022-09-27T02:26:48;8.97;;;6.23;;
18526;SDS011;9393;42.158;24.748;2022-09-27T02:29:59;8.60;;;6.73;;
18526;SDS011;9393;42.158;24.748;2022-09-27T02:33:08;8.37;;;7.10;;
18526;SDS011;9393;42.158;24.748;2022-09-27T02:36:12;10.93;;;6.67;;
18526;SDS011;9393;42.158;24.748;2022-09-27T02:39:18;9.33;;;7.50;;
18526;SDS011;9393;42.158;24.748;2022-09-27T02:42:31;8.10;;;6.60;;
18526;SDS011;9393;42.158;24.748;2022-09-27T02:45:40;9.90;;;7.27;;
18526;SDS011;9393;42.158;24.748;2022-09-27T02:48:56;8.00;;;7.23;;
18526;SDS011;9393;42.158;24.748;2022-09-27T02:52:16;7.87;;;7.07;;
18526;SDS011;9393;42.158;24.748;2022-09-27T02:55:29;10.67;;;6.97;;
18526;SDS011;9393;42.158;24.748;2022-09-27T02:59:05;9.90;;;6.17;;
18526;SDS011;9393;42.158;24.748;2022-09-27T03:02:29;9.97;;;6.43;;
18526;SDS011;9393;42.158;24.748;2022-09-27T03:05:58;6.73;;;6.03;;
18526;SDS011;9393;42.158;24.748;2022-09-27T03:09:07;9.43;;;6.80;;
18526;SDS011;9393;42.158;24.748;2022-09-27T03:12:17;8.60;;;7.30;;
18526;SDS011;9393;42.158;24.748;2022-09-27T03:15:26;8.17;;;7.07;;
18526;SDS011;9393;42.158;24.748;2022-09-27T03:18:35;8.87;;;7.10;;
18526;SDS011;9393;42.158;24.748;2022-09-27T03:22:01;9.60;;;7.10;;
18526;SDS011;9393;42.158;24.748;2022-09-27T03:25:07;10.47;;;7.87;;
18526;SDS011;9393;42.158;24.748;2022-09-27T03:28:10;12.53;;;7.83;;
18526;SDS011;9393;42.158;24.748;2022-09-27T03:31:16;9.13;;;7.50;;
18526;SDS011;9393;42.158;24.748;2022-09-27T03:34:31;9.13;;;7.87;;
18526;SDS011;9393;42.158;24.748;2022-09-27T03:37:35;9.07;;;7.10;;
18526;SDS011;9393;42.158;24.748;2022-09-27T03:40:39;9.13;;;7.40;;
18526;SDS011;9393;42.158;24.748;2022-09-27T03:43:44;9.13;;;7.50;;
18526;SDS011;9393;42.158;24.748;2022-09-27T03:46:49;10.10;;;7.80;;
18526;SDS011;9393;42.158;24.748;2022-09-27T03:49:53;9.70;;;7.47;;
18526;SDS011;9393;42.158;24.748;2022-09-27T03:52:56;8.43;;;7.53;;
18526;SDS011;9393;42.158;24.748;2022-09-27T03:56:01;9.13;;;7.57;;
18526;SDS011;9393;42.158;24.748;2022-09-27T03:59:05;9.77;;;7.70;;
18526;SDS011;9393;42.158;24.748;2022-09-27T04:02:29;7.80;;;7.00;;
18526;SDS011;9393;42.158;24.748;2022-09-27T04:05:52;7.67;;;6.87;;
18526;SDS011;9393;42.158;24.748;2022-09-27T04:09:05;9.70;;;7.47;;
18526;SDS011;9393;42.158;24.748;2022-09-27T04:12:30;13.13;;;8.93;;
18526;SDS011;9393;42.158;24.748;2022-09-27T04:15:33;9.33;;;7.37;;
18526;SDS011;9393;42.158;24.748;2022-09-27T04:19:03;11.13;;;6.90;;
18526;SDS011;9393;42.158;24.748;2022-09-27T04:22:13;11.60;;;7.57;;
18526;SDS011;9393;42.158;24.748;2022-09-27T04:25:17;10.53;;;7.47;;
18526;SDS011;9393;42.158;24.748;2022-09-27T04:28:24;10.13;;;8.27;;
18526;SDS011;9393;42.158;24.748;2022-09-27T04:31:28;10.87;;;7.73;;
18526;SDS011;9393;42.158;24.748;2022-09-27T04:34:46;13.00;;;8.17;;
18526;SDS011;9393;42.158;24.748;2022-09-27T04:38:07;15.97;;;8.90;;
18526;SDS011;9393;42.158;24.748;2022-09-27T04:41:10;12.20;;;7.80;;
18526;SDS011;9393;42.158;24.748;2022-09-27T04:44:16;13.33;;;8.33;;
18526;SDS011;9393;42.158;24.748;2022-09-27T04:47:23;14.73;;;8.23;;
18526;SDS011;9393;42.158;24.748;2022-09-27T04:50:26;12.87;;;8.33;;
18526;SDS011;9393;42.158;24.748;2022-09-27T04:53:37;12.20;;;8.67;;
18526;SDS011;9393;42.158;24.748;2022-09-27T04:56:40;12.17;;;8.33;;
18526;SDS011;9393;42.158;24.748;2022-09-27T04:59:45;10.97;;;8.73;;
18526;SDS011;9393;42.158;24.748;2022-09-27T05:02:52;11.97;;;8.77;;
18526;SDS011;9393;42.158;24.748;2022-09-27T05:06:11;12.43;;;8.93;;
18526;SDS011;9393;42.158;24.748;2022-09-27T05:09:15;12.30;;;9.23;;
18526;SDS011;9393;42.158;24.748;2022-09-27T05:12:23;13.40;;;9.73;;
18526;SDS011;9393;42.158;24.748;2022-09-27T05:15:32;12.57;;;9.23;;
18526;SDS011;9393;42.158;24.748;2022-09-27T05:19:08;15.73;;;9.57;;
18526;SDS011;9393;42.158;24.748;2022-09-27T05:22:38;18.00;;;9.27;;
18526;SDS011;9393;42.158;24.748;2022-09-27T05:25:42;13.90;;;8.90;;
18526;SDS011;9393;42.158;24.748;2022-09-27T05:28:46;14.03;;;9.03;;
18526;SDS011;9393;42.158;24.748;2022-09-27T05:31:51;14.07;;;8.60;;
18526;SDS011;9393;42.158;24.748;2022-09-27T05:34:54;18.37;;;10.03;;
18526;SDS011;9393;42.158;24.748;2022-09-27T05:37:58;12.83;;;9.30;;
18526;SDS011;9393;42.158;24.748;2022-09-27T05:41:05;19.53;;;9.23;;
18526;SDS011;9393;42.158;24.748;2022-09-27T05:44:08;13.87;;;9.03;;
18526;SDS011;9393;42.158;24.748;2022-09-27T05:47:21;11.93;;;7.83;;
18526;SDS011;9393;42.158;24.748;2022-09-27T05:50:25;16.43;;;8.67;;
18526;SDS011;9393;42.158;24.748;2022-09-27T05:53:29;11.97;;;8.83;;
18526;SDS011;9393;42.158;24.748;2022-09-27T05:56:36;11.90;;;9.07;;
18526;SDS011;9393;42.158;24.748;2022-09-27T05:59:57;13.37;;;8.97;;
18526;SDS011;9393;42.158;24.748;2022-09-27T06:03:19;15.80;;;9.80;;
18526;SDS011;9393;42.158;24.748;2022-09-27T06:06:49;16.47;;;9.20;;
18526;SDS011;9393;42.158;24.748;2022-09-27T06:09:52;18.47;;;9.80;;
18526;SDS011;9393;42.158;24.748;2022-09-27T06:12:57;13.83;;;8.93;;
18526;SDS011;9393;42.158;24.748;2022-09-27T06:16:10;15.73;;;9.13;;
18526;SDS011;9393;42.158;24.748;2022-09-27T06:19:19;22.50;;;10.70;;
18526;SDS011;9393;42.158;24.748;2022-09-27T06:22:23;13.57;;;9.10;;
18526;SDS011;9393;42.158;24.748;2022-09-27T06:25:32;10.97;;;6.90;;
18526;SDS011;9393;42.158;24.748;2022-09-27T06:28:45;12.23;;;7.90;;
18526;SDS011;9393;42.158;24.748;2022-09-27T06:31:57;14.63;;;7.43;;
18526;SDS011;9393;42.158;24.748;2022-09-27T06:35:08;20.03;;;8.73;;
18526;SDS011;9393;42.158;24.748;2022-09-27T06:38:12;13.63;;;8.23;;
18526;SDS011;9393;42.158;24.748;2022-09-27T06:41:24;18.83;;;8.93;;
18526;SDS011;9393;42.158;24.748;2022-09-27T06:44:46;22.67;;;12.57;;
18526;SDS011;9393;42.158;24.748;2022-09-27T06:48:17;18.53;;;10.43;;
18526;SDS011;9393;42.158;24.748;2022-09-27T06:51:42;14.17;;;8.17;;
18526;SDS011;9393;42.158;24.748;2022-09-27T06:54:45;15.83;;;8.70;;
18526;SDS011;9393;42.158;24.748;2022-09-27T06:57:48;10.73;;;8.27;;
18526;SDS011;9393;42.158;24.748;2022-09-27T07:01:17;15.33;;;7.90;;
18526;SDS011;9393;42.158;24.748;2022-09-27T07:04:39;13.07;;;7.57;;
18526;SDS011;9393;42.158;24.748;2022-09-27T07:08:02;13.97;;;6.57;;
18526;SDS011;9393;42.158;24.748;2022-09-27T07:11:07;11.63;;;6.85;;
18526;SDS011;9393;42.158;24.748;2022-09-27T07:14:10;11.32;;;7.20;;
18526;SDS011;9393;42.158;24.748;2022-09-27T07:17:13;10.57;;;7.60;;
18526;SDS011;9393;42.158;24.748;2022-09-27T07:20:19;10.90;;;7.07;;
18526;SDS011;9393;42.158;24.748;2022-09-27T07:23:24;11.00;;;7.10;;
18526;SDS011;9393;42.158;24.748;2022-09-27T07:26:28;7.03;;;6.25;;
18526;SDS011;9393;42.158;24.748;2022-09-27T07:29:32;8.85;;;6.57;;
18526;SDS011;9393;42.158;24.748;2022-09-27T07:32:35;10.45;;;6.18;;
18526;SDS011;9393;42.158;24.748;2022-09-27T07:35:42;7.93;;;6.78;;
18526;SDS011;9393;42.158;24.748;2022-09-27T07:38:46;9.45;;;6.65;;
18526;SDS011;9393;42.158;24.748;2022-09-27T07:41:52;6.45;;;5.63;;
18526;SDS011;9393;42.158;24.748;2022-09-27T07:44:55;6.13;;;5.53;;
18526;SDS011;9393;42.158;24.748;2022-09-27T07:48:18;10.20;;;5.78;;
18526;SDS011;9393;42.158;24.748;2022-09-27T07:51:47;8.68;;;5.88;;
18526;SDS011;9393;42.158;24.748;2022-09-27T07:55:10;6.00;;;5.40;;
18526;SDS011;9393;42.158;24.748;2022-09-27T07:58:30;5.85;;;5.30;;
18526;SDS011;9393;42.158;24.748;2022-09-27T08:01:38;10.02;;;5.15;;
18526;SDS011;9393;42.158;24.748;2022-09-27T08:04:47;6.60;;;5.68;;
18526;SDS011;9393;42.158;24.748;2022-09-27T08:07:53;8.02;;;5.28;;
18526;SDS011;9393;42.158;24.748;2022-09-27T08:11:00;6.43;;;5.30;;
18526;SDS011;9393;42.158;24.748;2022-09-27T08:14:04;8.48;;;5.75;;
18526;SDS011;9393;42.158;24.748;2022-09-27T08:17:08;9.57;;;5.55;;
18526;SDS011;9393;42.158;24.748;2022-09-27T08:20:35;6.20;;;5.57;;
18526;SDS011;9393;42.158;24.748;2022-09-27T08:23:58;5.75;;;5.25;;
18526;SDS011;9393;42.158;24.748;2022-09-27T08:27:08;5.68;;;5.18;;
18526;SDS011;9393;42.158;24.748;2022-09-27T08:30:27;7.05;;;5.28;;
18526;SDS011;9393;42.158;24.748;2022-09-27T08:33:34;8.20;;;5.50;;
18526;SDS011;9393;42.158;24.748;2022-09-27T08:36:43;8.68;;;5.88;;
18526;SDS011;9393;42.158;24.748;2022-09-27T08:39:46;8.73;;;5.75;;
18526;SDS011;9393;42.158;24.748;2022-09-27T08:42:57;7.82;;;6.43;;
18526;SDS011;9393;42.158;24.748;2022-09-27T08:46:12;7.43;;;5.18;;
18526;SDS011;9393;42.158;24.748;2022-09-27T08:49:25;8.52;;;5.43;;
18526;SDS011;9393;42.158;24.748;2022-09-27T08:52:37;8.00;;;5.40;;
18526;SDS011;9393;42.158;24.748;2022-09-27T08:55:47;12.90;;;5.30;;
18526;SDS011;9393;42.158;24.748;2022-09-27T08:59:03;7.72;;;5.45;;
18526;SDS011;9393;42.158;24.748;2022-09-27T09:02:16;7.68;;;5.75;;
18526;SDS011;9393;42.158;24.748;2022-09-27T09:05:26;7.30;;;5.25;;
18526;SDS011;9393;42.158;24.748;2022-09-27T09:08:33;8.30;;;4.93;;
18526;SDS011;9393;42.158;24.748;2022-09-27T09:11:54;6.90;;;5.20;;
18526;SDS011;9393;42.158;24.748;2022-09-27T09:15:30;6.68;;;5.50;;
18526;SDS011;9393;42.158;24.748;2022-09-27T09:19:02;9.85;;;4.85;;
18526;SDS011;9393;42.158;24.748;2022-09-27T09:22:40;5.97;;;5.38;;
18526;SDS011;9393;42.158;24.748;2022-09-27T09:25:57;8.05;;;5.25;;
18526;SDS011;9393;42.158;24.748;2022-09-27T09:29:12;7.30;;;5.35;;
18526;SDS011;9393;42.158;24.748;2022-09-27T09:32:30;6.55;;;4.80;;
18526;SDS011;9393;42.158;24.748;2022-09-27T09:35:47;7.78;;;4.82;;
18526;SDS011;9393;42.158;24.748;2022-09-27T09:38:56;9.38;;;5.20;;
18526;SDS011;9393;42.158;24.748;2022-09-27T09:42:06;8.25;;;6.35;;
18526;SDS011;9393;42.158;24.748;2022-09-27T09:45:15;11.43;;;5.82;;
18526;SDS011;9393;42.158;24.748;2022-09-27T09:48:26;7.88;;;5.22;;
18526;SDS011;9393;42.158;24.748;2022-09-27T09:51:38;10.75;;;5.40;;
18526;SDS011;9393;42.158;24.748;2022-09-27T09:54:48;9.50;;;4.85;;
18526;SDS011;9393;42.158;24.748;2022-09-27T09:57:59;9.60;;;5.68;;
18526;SDS011;9393;42.158;24.748;2022-09-27T10:01:17;5.80;;;4.93;;
18526;SDS011;9393;42.158;24.748;2022-09-27T10:04:25;5.20;;;4.72;;
18526;SDS011;9393;42.158;24.748;2022-09-27T10:07:33;5.45;;;4.95;;
18526;SDS011;9393;42.158;24.748;2022-09-27T10:10:40;7.22;;;5.13;;
18526;SDS011;9393;42.158;24.748;2022-09-27T10:14:07;8.70;;;4.82;;
18526;SDS011;9393;42.158;24.748;2022-09-27T10:17:14;9.60;;;5.40;;
18526;SDS011;9393;42.158;24.748;2022-09-27T10:20:30;8.23;;;5.30;;
18526;SDS011;9393;42.158;24.748;2022-09-27T10:27:37;7.18;;;5.25;;
18526;SDS011;9393;42.158;24.748;2022-09-27T10:30:43;7.50;;;5.32;;
18526;SDS011;9393;42.158;24.748;2022-09-27T10:34:01;7.40;;;4.90;;
18526;SDS011;9393;42.158;24.748;2022-09-27T10:37:20;6.25;;;5.30;;
18526;SDS011;9393;42.158;24.748;2022-09-27T10:40:32;10.73;;;5.47;;
18526;SDS011;9393;42.158;24.748;2022-09-27T10:43:40;7.47;;;5.82;;
18526;SDS011;9393;42.158;24.748;2022-09-27T10:46:58;6.38;;;5.38;;
18526;SDS011;9393;42.158;24.748;2022-09-27T10:50:17;9.10;;;5.28;;
18526;SDS011;9393;42.158;24.748;2022-09-27T10:54:01;7.93;;;5.13;;
18526;SDS011;9393;42.158;24.748;2022-09-27T10:57:15;10.50;;;5.15;;
18526;SDS011;9393;42.158;24.748;2022-09-27T11:00:22;6.75;;;4.72;;
18526;SDS011;9393;42.158;24.748;2022-09-27T11:03:28;8.13;;;5.20;;
18526;SDS011;9393;42.158;24.748;2022-09-27T11:06:33;7.88;;;4.45;;
18526;SDS011;9393;42.158;24.748;2022-09-27T11:09:51;7.55;;;5.00;;
18526;SDS011;9393;42.158;24.748;2022-09-27T11:16:28;5.80;;;4.28;;
18526;SDS011;9393;42.158;24.748;2022-09-27T11:19:47;6.53;;;4.40;;
18526;SDS011;9393;42.158;24.748;2022-09-27T11:23:05;7.20;;;4.40;;
18526;SDS011;9393;42.158;24.748;2022-09-27T11:26:28;5.40;;;4.05;;
18526;SDS011;9393;42.158;24.748;2022-09-27T11:29:44;10.18;;;4.57;;
18526;SDS011;9393;42.158;24.748;2022-09-27T11:33:28;7.30;;;4.60;;
18526;SDS011;9393;42.158;24.748;2022-09-27T11:37:09;14.65;;;8.00;;
18526;SDS011;9393;42.158;24.748;2022-09-27T11:40:23;8.68;;;4.20;;
18526;SDS011;9393;42.158;24.748;2022-09-27T11:43:48;7.18;;;4.45;;
18526;SDS011;9393;42.158;24.748;2022-09-27T11:47:12;4.40;;;4.00;;
18526;SDS011;9393;42.158;24.748;2022-09-27T11:50:30;8.35;;;4.63;;
18526;SDS011;9393;42.158;24.748;2022-09-27T11:54:11;5.10;;;4.15;;
18526;SDS011;9393;42.158;24.748;2022-09-27T11:57:29;5.45;;;3.70;;
18526;SDS011;9393;42.158;24.748;2022-09-27T12:00:44;4.25;;;3.22;;
18526;SDS011;9393;42.158;24.748;2022-09-27T12:04:04;6.07;;;3.92;;
18526;SDS011;9393;42.158;24.748;2022-09-27T12:07:32;5.82;;;3.70;;
18526;SDS011;9393;42.158;24.748;2022-09-27T12:10:45;8.27;;;3.97;;
18526;SDS011;9393;42.158;24.748;2022-09-27T12:13:56;6.47;;;4.03;;
18526;SDS011;9393;42.158;24.748;2022-09-27T12:17:06;3.83;;;3.30;;
18526;SDS011;9393;42.158;24.748;2022-09-27T12:20:18;4.72;;;3.47;;
18526;SDS011;9393;42.158;24.748;2022-09-27T12:23:27;5.10;;;3.85;;
18526;SDS011;9393;42.158;24.748;2022-09-27T12:26:56;6.05;;;3.67;;
18526;SDS011;9393;42.158;24.748;2022-09-27T12:30:04;5.22;;;4.03;;
18526;SDS011;9393;42.158;24.748;2022-09-27T12:33:12;4.20;;;3.75;;
18526;SDS011;9393;42.158;24.748;2022-09-27T12:36:22;6.72;;;3.83;;
18526;SDS011;9393;42.158;24.748;2022-09-27T12:39:32;5.22;;;3.70;;
18526;SDS011;9393;42.158;24.748;2022-09-27T12:42:55;4.78;;;4.10;;
18526;SDS011;9393;42.158;24.748;2022-09-27T12:46:21;5.60;;;3.80;;
18526;SDS011;9393;42.158;24.748;2022-09-27T12:49:39;5.60;;;3.70;;
18526;SDS011;9393;42.158;24.748;2022-09-27T12:52:52;5.38;;;3.83;;
18526;SDS011;9393;42.158;24.748;2022-09-27T12:56:08;6.70;;;4.18;;
18526;SDS011;9393;42.158;24.748;2022-09-27T13:03:04;5.97;;;4.13;;
18526;SDS011;9393;42.158;24.748;2022-09-27T13:06:41;5.38;;;3.72;;
18526;SDS011;9393;42.158;24.748;2022-09-27T13:10:18;9.68;;;4.00;;
18526;SDS011;9393;42.158;24.748;2022-09-27T13:13:47;5.72;;;4.20;;
18526;SDS011;9393;42.158;24.748;2022-09-27T13:16:51;6.78;;;3.63;;
18526;SDS011;9393;42.158;24.748;2022-09-27T13:19:56;6.50;;;3.97;;
18526;SDS011;9393;42.158;24.748;2022-09-27T13:23:02;7.82;;;3.58;;
18526;SDS011;9393;42.158;24.748;2022-09-27T13:26:19;7.05;;;3.58;;
18526;SDS011;9393;42.158;24.748;2022-09-27T13:29:30;7.95;;;3.92;;
18526;SDS011;9393;42.158;24.748;2022-09-27T13:32:42;6.63;;;3.80;;
18526;SDS011;9393;42.158;24.748;2022-09-27T13:36:30;11.30;;;4.45;;
18526;SDS011;9393;42.158;24.748;2022-09-27T13:39:43;8.07;;;3.88;;
18526;SDS011;9393;42.158;24.748;2022-09-27T13:46:59;4.43;;;3.38;;
18526;SDS011;9393;42.158;24.748;2022-09-27T13:50:13;5.65;;;4.22;;
18526;SDS011;9393;42.158;24.748;2022-09-27T13:53:30;6.03;;;4.32;;
18526;SDS011;9393;42.158;24.748;2022-09-27T13:56:52;8.40;;;4.10;;
18526;SDS011;9393;42.158;24.748;2022-09-27T13:59:57;7.70;;;4.60;;
18526;SDS011;9393;42.158;24.748;2022-09-27T14:03:24;7.75;;;4.13;;
18526;SDS011;9393;42.158;24.748;2022-09-27T14:06:40;12.43;;;4.75;;
18526;SDS011;9393;42.158;24.748;2022-09-27T14:09:51;12.07;;;5.30;;
18526;SDS011;9393;42.158;24.748;2022-09-27T14:13:01;8.38;;;4.88;;
18526;SDS011;9393;42.158;24.748;2022-09-27T14:16:17;10.27;;;4.72;;
18526;SDS011;9393;42.158;24.748;2022-09-27T14:19:22;8.27;;;4.90;;
18526;SDS011;9393;42.158;24.748;2022-09-27T14:22:29;8.15;;;4.80;;
18526;SDS011;9393;42.158;24.748;2022-09-27T14:25:37;7.93;;;4.28;;
18526;SDS011;9393;42.158;24.748;2022-09-27T14:28:42;7.28;;;3.90;;
18526;SDS011;9393;42.158;24.748;2022-09-27T14:32:01;5.10;;;4.60;;
18526;SDS011;9393;42.158;24.748;2022-09-27T14:35:19;11.98;;;4.47;;
18526;SDS011;9393;42.158;24.748;2022-09-27T14:38:41;10.23;;;4.78;;
18526;SDS011;9393;42.158;24.748;2022-09-27T14:42:01;8.05;;;4.82;;
18526;SDS011;9393;42.158;24.748;2022-09-27T14:45:12;6.30;;;4.28;;
18526;SDS011;9393;42.158;24.748;2022-09-27T14:48:26;10.18;;;6.10;;
18526;SDS011;9393;42.158;24.748;2022-09-27T14:51:32;6.60;;;4.47;;
18526;SDS011;9393;42.158;24.748;2022-09-27T14:54:36;7.97;;;5.15;;
18526;SDS011;9393;42.158;24.748;2022-09-27T14:57:44;8.93;;;5.28;;
18526;SDS011;9393;42.158;24.748;2022-09-27T15:00:50;7.15;;;5.00;;
18526;SDS011;9393;42.158;24.748;2022-09-27T15:03:53;8.95;;;4.93;;
18526;SDS011;9393;42.158;24.748;2022-09-27T15:06:59;7.75;;;5.57;;
18526;SDS011;9393;42.158;24.748;2022-09-27T15:10:04;7.50;;;5.10;;
18526;SDS011;9393;42.158;24.748;2022-09-27T15:13:10;5.60;;;4.80;;
18526;SDS011;9393;42.158;24.748;2022-09-27T15:16:19;9.07;;;5.40;;
18526;SDS011;9393;42.158;24.748;2022-09-27T15:19:25;6.85;;;5.93;;
18526;SDS011;9393;42.158;24.748;2022-09-27T15:22:40;12.07;;;6.32;;
18526;SDS011;9393;42.158;24.748;2022-09-27T15:25:55;10.30;;;6.80;;
18526;SDS011;9393;42.158;24.748;2022-09-27T15:29:04;9.32;;;5.78;;
18526;SDS011;9393;42.158;24.748;2022-09-27T15:32:13;7.68;;;6.57;;
18526;SDS011;9393;42.158;24.748;2022-09-27T15:35:21;9.20;;;6.00;;
18526;SDS011;9393;42.158;24.748;2022-09-27T15:38:27;10.75;;;6.10;;
18526;SDS011;9393;42.158;24.748;2022-09-27T15:41:40;10.98;;;6.53;;
18526;SDS011;9393;42.158;24.748;2022-09-27T15:45:07;10.52;;;6.18;;
18526;SDS011;9393;42.158;24.748;2022-09-27T15:48:31;8.25;;;6.32;;
18526;SDS011;9393;42.158;24.748;2022-09-27T15:51:38;16.13;;;7.07;;
18526;SDS011;9393;42.158;24.748;2022-09-27T15:54:42;12.75;;;7.47;;
18526;SDS011;9393;42.158;24.748;2022-09-27T15:57:46;10.55;;;6.75;;
18526;SDS011;9393;42.158;24.748;2022-09-27T16:00:53;12.48;;;8.07;;
18526;SDS011;9393;42.158;24.748;2022-09-27T16:04:01;29.73;;;13.50;;
18526;SDS011;9393;42.158;24.748;2022-09-27T16:07:04;15.70;;;8.98;;
18526;SDS011;9393;42.158;24.748;2022-09-27T16:10:11;13.57;;;9.10;;
18526;SDS011;9393;42.158;24.748;2022-09-27T16:13:16;25.30;;;11.75;;
18526;SDS011;9393;42.158;24.748;2022-09-27T16:16:19;14.68;;;9.27;;
18526;SDS011;9393;42.158;24.748;2022-09-27T16:19:25;16.20;;;8.95;;
18526;SDS011;9393;42.158;24.748;2022-09-27T16:22:28;13.15;;;8.48;;
18526;SDS011;9393;42.158;24.748;2022-09-27T16:25:31;13.50;;;10.38;;
18526;SDS011;9393;42.158;24.748;2022-09-27T16:28:35;20.00;;;9.77;;
18526;SDS011;9393;42.158;24.748;2022-09-27T16:31:38;15.07;;;10.98;;
18526;SDS011;9393;42.158;24.748;2022-09-27T16:34:43;18.33;;;8.27;;
18526;SDS011;9393;42.158;24.748;2022-09-27T16:37:46;29.17;;;15.63;;
18526;SDS011;9393;42.158;24.748;2022-09-27T16:40:50;22.48;;;15.52;;
18526;SDS011;9393;42.158;24.748;2022-09-27T16:43:53;18.27;;;9.65;;
18526;SDS011;9393;42.158;24.748;2022-09-27T16:46:57;40.63;;;21.50;;
18526;SDS011;9393;42.158;24.748;2022-09-27T16:50:01;17.08;;;8.63;;
18526;SDS011;9393;42.158;24.748;2022-09-27T16:53:22;19.20;;;11.23;;
18526;SDS011;9393;42.158;24.748;2022-09-27T16:56:26;20.38;;;12.32;;
18526;SDS011;9393;42.158;24.748;2022-09-27T16:59:29;17.45;;;11.68;;
18526;SDS011;9393;42.158;24.748;2022-09-27T17:02:32;17.35;;;10.57;;
18526;SDS011;9393;42.158;24.748;2022-09-27T17:05:38;16.88;;;9.65;;
18526;SDS011;9393;42.158;24.748;2022-09-27T17:08:41;11.02;;;9.20;;
18526;SDS011;9393;42.158;24.748;2022-09-27T17:11:44;15.48;;;11.50;;
18526;SDS011;9393;42.158;24.748;2022-09-27T17:14:47;16.63;;;11.55;;
18526;SDS011;9393;42.158;24.748;2022-09-27T17:17:51;15.88;;;10.88;;
18526;SDS011;9393;42.158;24.748;2022-09-27T17:20:59;20.85;;;11.88;;
18526;SDS011;9393;42.158;24.748;2022-09-27T17:24:04;17.85;;;12.48;;
18526;SDS011;9393;42.158;24.748;2022-09-27T17:27:08;17.20;;;12.45;;
18526;SDS011;9393;42.158;24.748;2022-09-27T17:30:11;15.95;;;12.63;;
18526;SDS011;9393;42.158;24.748;2022-09-27T17:33:14;17.98;;;13.43;;
18526;SDS011;9393;42.158;24.748;2022-09-27T17:36:22;18.33;;;13.02;;
18526;SDS011;9393;42.158;24.748;2022-09-27T17:39:27;19.50;;;12.15;;
18526;SDS011;9393;42.158;24.748;2022-09-27T17:42:30;14.57;;;10.88;;
18526;SDS011;9393;42.158;24.748;2022-09-27T17:45:34;27.60;;;20.15;;
18526;SDS011;9393;42.158;24.748;2022-09-27T17:48:37;21.05;;;14.45;;
18526;SDS011;9393;42.158;24.748;2022-09-27T17:51:59;22.35;;;12.77;;
18526;SDS011;9393;42.158;24.748;2022-09-27T17:55:03;24.27;;;16.65;;
18526;SDS011;9393;42.158;24.748;2022-09-27T17:58:07;17.60;;;12.15;;
18526;SDS011;9393;42.158;24.748;2022-09-27T18:01:10;14.40;;;11.80;;
18526;SDS011;9393;42.158;24.748;2022-09-27T18:04:14;15.80;;;11.80;;
18526;SDS011;9393;42.158;24.748;2022-09-27T18:07:21;19.25;;;11.68;;
18526;SDS011;9393;42.158;24.748;2022-09-27T18:10:24;13.93;;;9.82;;
18526;SDS011;9393;42.158;24.748;2022-09-27T18:13:27;14.90;;;10.07;;
18526;SDS011;9393;42.158;24.748;2022-09-27T18:16:41;13.73;;;11.20;;
18526;SDS011;9393;42.158;24.748;2022-09-27T18:19:44;13.98;;;10.55;;
18526;SDS011;9393;42.158;24.748;2022-09-27T18:22:49;14.68;;;10.95;;
18526;SDS011;9393;42.158;24.748;2022-09-27T18:25:53;15.13;;;11.35;;
18526;SDS011;9393;42.158;24.748;2022-09-27T18:28:59;12.80;;;10.02;;
18526;SDS011;9393;42.158;24.748;2022-09-27T18:32:03;12.98;;;10.48;;
18526;SDS011;9393;42.158;24.748;2022-09-27T18:35:06;13.93;;;11.05;;
18526;SDS011;9393;42.158;24.748;2022-09-27T18:38:12;12.98;;;10.02;;
18526;SDS011;9393;42.158;24.748;2022-09-27T18:41:19;15.65;;;11.50;;
18526;SDS011;9393;42.158;24.748;2022-09-27T18:44:25;19.40;;;11.88;;
18526;SDS011;9393;42.158;24.748;2022-09-27T18:47:28;22.77;;;13.73;;
18526;SDS011;9393;42.158;24.748;2022-09-27T18:50:34;20.42;;;14.65;;
18526;SDS011;9393;42.158;24.748;2022-09-27T18:53:40;17.58;;;14.13;;
18526;SDS011;9393;42.158;24.748;2022-09-27T18:56:44;19.38;;;15.85;;
18526;SDS011;9393;42.158;24.748;2022-09-27T18:59:51;18.30;;;12.25;;
18526;SDS011;9393;42.158;24.748;2022-09-27T19:02:55;16.40;;;13.15;;
18526;SDS011;9393;42.158;24.748;2022-09-27T19:05:59;14.27;;;12.20;;
18526;SDS011;9393;42.158;24.748;2022-09-27T19:09:06;15.18;;;11.10;;
18526;SDS011;9393;42.158;24.748;2022-09-27T19:12:12;12.40;;;9.88;;
18526;SDS011;9393;42.158;24.748;2022-09-27T19:15:15;15.05;;;11.38;;
18526;SDS011;9393;42.158;24.748;2022-09-27T19:18:19;15.07;;;10.80;;